sensor_id;sensor_type;location;lat;lon;timestamp;P1;durP1;ratioP1;P2;durP2;ratioP2
4106;SDS011;21906;50.812;7.132;2023-07-02T00:01:44;5.27;;;3.90;;
4106;SDS011;21906;50.812;7.132;2023-07-02T00:04:10;3.40;;;3.10;;
4106;SDS011;21906;50.812;7.132;2023-07-02T00:06:38;3.93;;;3.50;;
4106;SDS011;21906;50.812;7.132;2023-07-02T00:09:05;3.67;;;3.37;;
4106;SDS011;21906;50.812;7.132;2023-07-02T00:11:32;3.50;;;3.20;;
4106;SDS011;21906;50.812;7.132;2023-07-02T00:13:58;3.70;;;3.40;;
4106;SDS011;21906;50.812;7.132;2023-07-02T00:16:23;4.67;;;3.40;;
4106;SDS011;21906;50.812;7.132;2023-07-02T00:18:49;3.70;;;3.40;;
4106;SDS011;21906;50.812;7.132;2023-07-02T00:21:20;3.60;;;3.30;;
4106;SDS011;21906;50.812;7.132;2023-07-02T00:23:46;3.57;;;3.27;;
4106;SDS011;21906;50.812;7.132;2023-07-02T00:26:12;3.33;;;3.10;;
4106;SDS011;21906;50.812;7.132;2023-07-02T00:28:38;3.53;;;3.23;;
4106;SDS011;21906;50.812;7.132;2023-07-02T00:31:04;3.73;;;3.43;;
4106;SDS011;21906;50.812;7.132;2023-07-02T00:33:31;4.90;;;3.70;;
4106;SDS011;21906;50.812;7.132;2023-07-02T00:35:57;3.33;;;3.13;;
4106;SDS011;21906;50.812;7.132;2023-07-02T00:38:25;3.80;;;3.40;;
4106;SDS011;21906;50.812;7.132;2023-07-02T00:40:51;3.93;;;3.30;;
4106;SDS011;21906;50.812;7.132;2023-07-02T00:43:16;4.87;;;3.30;;
4106;SDS011;21906;50.812;7.132;2023-07-02T00:45:42;3.67;;;3.40;;
4106;SDS011;21906;50.812;7.132;2023-07-02T00:48:09;3.57;;;3.27;;
4106;SDS011;21906;50.812;7.132;2023-07-02T00:50:35;4.73;;;3.20;;
4106;SDS011;21906;50.812;7.132;2023-07-02T00:53:01;4.13;;;3.23;;
4106;SDS011;21906;50.812;7.132;2023-07-02T00:55:27;4.00;;;3.30;;
4106;SDS011;21906;50.812;7.132;2023-07-02T00:57:52;3.93;;;3.50;;
4106;SDS011;21906;50.812;7.132;2023-07-02T01:00:18;7.80;;;3.33;;
4106;SDS011;21906;50.812;7.132;2023-07-02T01:02:52;3.33;;;3.07;;
4106;SDS011;21906;50.812;7.132;2023-07-02T01:05:22;3.57;;;3.37;;
4106;SDS011;21906;50.812;7.132;2023-07-02T01:07:48;3.53;;;3.33;;
4106;SDS011;21906;50.812;7.132;2023-07-02T01:10:14;4.27;;;3.87;;
4106;SDS011;21906;50.812;7.132;2023-07-02T01:12:39;3.67;;;3.37;;
4106;SDS011;21906;50.812;7.132;2023-07-02T01:15:06;3.87;;;3.40;;
4106;SDS011;21906;50.812;7.132;2023-07-02T01:17:33;3.63;;;3.33;;
4106;SDS011;21906;50.812;7.132;2023-07-02T01:20:07;3.77;;;3.47;;
4106;SDS011;21906;50.812;7.132;2023-07-02T01:22:34;3.93;;;3.47;;
4106;SDS011;21906;50.812;7.132;2023-07-02T01:25:00;3.77;;;3.37;;
4106;SDS011;21906;50.812;7.132;2023-07-02T01:27:29;3.93;;;3.53;;
4106;SDS011;21906;50.812;7.132;2023-07-02T01:29:55;3.87;;;3.57;;
4106;SDS011;21906;50.812;7.132;2023-07-02T01:32:21;4.60;;;3.43;;
4106;SDS011;21906;50.812;7.132;2023-07-02T01:34:47;3.93;;;3.53;;
4106;SDS011;21906;50.812;7.132;2023-07-02T01:37:14;3.50;;;3.20;;
4106;SDS011;21906;50.812;7.132;2023-07-02T01:43:02;4.70;;;4.20;;
4106;SDS011;21906;50.812;7.132;2023-07-02T01:45:27;4.73;;;4.33;;
4106;SDS011;21906;50.812;7.132;2023-07-02T01:47:53;4.50;;;4.10;;
4106;SDS011;21906;50.812;7.132;2023-07-02T01:50:18;5.17;;;4.43;;
4106;SDS011;21906;50.812;7.132;2023-07-02T01:52:44;4.97;;;3.77;;
4106;SDS011;21906;50.812;7.132;2023-07-02T01:55:10;4.10;;;3.80;;
4106;SDS011;21906;50.812;7.132;2023-07-02T01:57:35;4.13;;;3.83;;
4106;SDS011;21906;50.812;7.132;2023-07-02T02:00:01;4.20;;;3.80;;
4106;SDS011;21906;50.812;7.132;2023-07-02T02:02:27;4.67;;;4.23;;
4106;SDS011;21906;50.812;7.132;2023-07-02T02:04:52;4.10;;;3.80;;
4106;SDS011;21906;50.812;7.132;2023-07-02T02:07:18;4.03;;;3.73;;
4106;SDS011;21906;50.812;7.132;2023-07-02T02:09:44;4.27;;;3.93;;
4106;SDS011;21906;50.812;7.132;2023-07-02T02:12:09;5.17;;;3.83;;
4106;SDS011;21906;50.812;7.132;2023-07-02T02:14:35;4.87;;;4.10;;
4106;SDS011;21906;50.812;7.132;2023-07-02T02:17:00;3.93;;;3.63;;
4106;SDS011;21906;50.812;7.132;2023-07-02T02:19:26;4.77;;;4.37;;
4106;SDS011;21906;50.812;7.132;2023-07-02T02:21:52;3.80;;;3.50;;
4106;SDS011;21906;50.812;7.132;2023-07-02T02:24:17;4.13;;;3.73;;
4106;SDS011;21906;50.812;7.132;2023-07-02T02:26:43;4.70;;;4.30;;
4106;SDS011;21906;50.812;7.132;2023-07-02T02:29:08;4.83;;;4.27;;
4106;SDS011;21906;50.812;7.132;2023-07-02T02:31:34;6.30;;;4.40;;
4106;SDS011;21906;50.812;7.132;2023-07-02T02:34:00;4.80;;;4.30;;
4106;SDS011;21906;50.812;7.132;2023-07-02T02:36:25;7.17;;;4.80;;
4106;SDS011;21906;50.812;7.132;2023-07-02T02:38:51;5.43;;;4.97;;
4106;SDS011;21906;50.812;7.132;2023-07-02T02:41:16;6.20;;;5.40;;
4106;SDS011;21906;50.812;7.132;2023-07-02T02:43:42;6.90;;;4.90;;
4106;SDS011;21906;50.812;7.132;2023-07-02T02:46:09;6.67;;;5.27;;
4106;SDS011;21906;50.812;7.132;2023-07-02T02:48:44;6.70;;;4.80;;
4106;SDS011;21906;50.812;7.132;2023-07-02T02:51:09;8.57;;;5.73;;
4106;SDS011;21906;50.812;7.132;2023-07-02T02:53:35;8.60;;;5.70;;
4106;SDS011;21906;50.812;7.132;2023-07-02T02:56:00;7.27;;;5.37;;
4106;SDS011;21906;50.812;7.132;2023-07-02T02:58:26;7.97;;;5.80;;
4106;SDS011;21906;50.812;7.132;2023-07-02T03:00:53;7.87;;;6.30;;
4106;SDS011;21906;50.812;7.132;2023-07-02T03:03:18;8.70;;;6.87;;
4106;SDS011;21906;50.812;7.132;2023-07-02T03:05:45;10.97;;;7.40;;
4106;SDS011;21906;50.812;7.132;2023-07-02T03:08:13;11.97;;;7.53;;
4106;SDS011;21906;50.812;7.132;2023-07-02T03:10:39;10.30;;;6.80;;
4106;SDS011;21906;50.812;7.132;2023-07-02T03:13:04;11.63;;;7.00;;
4106;SDS011;21906;50.812;7.132;2023-07-02T03:15:30;10.13;;;7.57;;
4106;SDS011;21906;50.812;7.132;2023-07-02T03:17:56;9.40;;;7.60;;
4106;SDS011;21906;50.812;7.132;2023-07-02T03:20:21;13.23;;;7.93;;
4106;SDS011;21906;50.812;7.132;2023-07-02T03:22:47;11.27;;;7.97;;
4106;SDS011;21906;50.812;7.132;2023-07-02T03:25:12;15.87;;;8.37;;
4106;SDS011;21906;50.812;7.132;2023-07-02T03:27:38;12.10;;;8.27;;
4106;SDS011;21906;50.812;7.132;2023-07-02T03:30:04;13.80;;;8.47;;
4106;SDS011;21906;50.812;7.132;2023-07-02T03:32:30;10.17;;;7.63;;
4106;SDS011;21906;50.812;7.132;2023-07-02T03:34:56;11.87;;;8.63;;
4106;SDS011;21906;50.812;7.132;2023-07-02T03:37:21;13.47;;;8.30;;
4106;SDS011;21906;50.812;7.132;2023-07-02T03:39:47;14.87;;;7.83;;
4106;SDS011;21906;50.812;7.132;2023-07-02T03:42:13;11.93;;;8.50;;
4106;SDS011;21906;50.812;7.132;2023-07-02T03:44:38;11.60;;;8.60;;
4106;SDS011;21906;50.812;7.132;2023-07-02T03:47:05;13.20;;;9.27;;
4106;SDS011;21906;50.812;7.132;2023-07-02T03:49:33;12.80;;;7.77;;
4106;SDS011;21906;50.812;7.132;2023-07-02T03:51:59;13.10;;;8.60;;
4106;SDS011;21906;50.812;7.132;2023-07-02T03:54:24;13.80;;;9.37;;
4106;SDS011;21906;50.812;7.132;2023-07-02T03:56:50;13.47;;;8.27;;
4106;SDS011;21906;50.812;7.132;2023-07-02T03:59:15;13.13;;;8.97;;
4106;SDS011;21906;50.812;7.132;2023-07-02T04:01:41;11.43;;;8.63;;
4106;SDS011;21906;50.812;7.132;2023-07-02T04:04:08;14.47;;;8.97;;
4106;SDS011;21906;50.812;7.132;2023-07-02T04:06:34;16.20;;;8.80;;
4106;SDS011;21906;50.812;7.132;2023-07-02T04:09:00;14.80;;;8.90;;
4106;SDS011;21906;50.812;7.132;2023-07-02T04:11:25;12.77;;;9.00;;
4106;SDS011;21906;50.812;7.132;2023-07-02T04:13:51;13.63;;;8.60;;
4106;SDS011;21906;50.812;7.132;2023-07-02T04:16:17;16.13;;;9.00;;
4106;SDS011;21906;50.812;7.132;2023-07-02T04:18:42;14.37;;;9.50;;
4106;SDS011;21906;50.812;7.132;2023-07-02T04:21:08;11.83;;;9.33;;
4106;SDS011;21906;50.812;7.132;2023-07-02T04:23:34;16.20;;;9.70;;
4106;SDS011;21906;50.812;7.132;2023-07-02T04:25:59;15.87;;;9.13;;
4106;SDS011;21906;50.812;7.132;2023-07-02T04:28:25;14.97;;;8.90;;
4106;SDS011;21906;50.812;7.132;2023-07-02T04:30:50;15.70;;;10.50;;
4106;SDS011;21906;50.812;7.132;2023-07-02T04:33:18;17.67;;;9.83;;
4106;SDS011;21906;50.812;7.132;2023-07-02T04:35:43;18.53;;;11.17;;
4106;SDS011;21906;50.812;7.132;2023-07-02T04:38:09;22.63;;;12.33;;
4106;SDS011;21906;50.812;7.132;2023-07-02T04:40:35;18.63;;;12.37;;
4106;SDS011;21906;50.812;7.132;2023-07-02T04:43:01;23.80;;;12.90;;
4106;SDS011;21906;50.812;7.132;2023-07-02T04:45:30;21.57;;;11.17;;
4106;SDS011;21906;50.812;7.132;2023-07-02T04:48:01;21.33;;;12.90;;
4106;SDS011;21906;50.812;7.132;2023-07-02T04:50:30;21.13;;;13.67;;
4106;SDS011;21906;50.812;7.132;2023-07-02T04:52:56;19.80;;;13.17;;
4106;SDS011;21906;50.812;7.132;2023-07-02T04:55:22;27.93;;;13.87;;
4106;SDS011;21906;50.812;7.132;2023-07-02T04:57:47;27.87;;;13.40;;
4106;SDS011;21906;50.812;7.132;2023-07-02T05:00:13;24.37;;;14.37;;
4106;SDS011;21906;50.812;7.132;2023-07-02T05:02:39;25.10;;;13.67;;
4106;SDS011;21906;50.812;7.132;2023-07-02T05:05:05;26.27;;;15.13;;
4106;SDS011;21906;50.812;7.132;2023-07-02T05:07:31;27.03;;;15.43;;
4106;SDS011;21906;50.812;7.132;2023-07-02T05:09:58;27.43;;;14.73;;
4106;SDS011;21906;50.812;7.132;2023-07-02T05:12:23;29.10;;;15.27;;
4106;SDS011;21906;50.812;7.132;2023-07-02T05:14:49;26.07;;;14.73;;
4106;SDS011;21906;50.812;7.132;2023-07-02T05:17:15;26.90;;;15.00;;
4106;SDS011;21906;50.812;7.132;2023-07-02T05:19:40;25.37;;;15.20;;
4106;SDS011;21906;50.812;7.132;2023-07-02T05:22:06;23.40;;;14.30;;
4106;SDS011;21906;50.812;7.132;2023-07-02T05:24:33;32.03;;;16.47;;
4106;SDS011;21906;50.812;7.132;2023-07-02T05:26:58;28.93;;;16.10;;
4106;SDS011;21906;50.812;7.132;2023-07-02T05:29:24;30.20;;;16.80;;
4106;SDS011;21906;50.812;7.132;2023-07-02T05:31:50;30.43;;;16.67;;
4106;SDS011;21906;50.812;7.132;2023-07-02T05:34:15;32.03;;;17.70;;
4106;SDS011;21906;50.812;7.132;2023-07-02T05:36:41;27.00;;;16.17;;
4106;SDS011;21906;50.812;7.132;2023-07-02T05:39:07;31.90;;;17.27;;
4106;SDS011;21906;50.812;7.132;2023-07-02T05:41:32;26.10;;;16.17;;
4106;SDS011;21906;50.812;7.132;2023-07-02T05:43:58;31.90;;;17.30;;
4106;SDS011;21906;50.812;7.132;2023-07-02T05:46:24;37.57;;;18.03;;
4106;SDS011;21906;50.812;7.132;2023-07-02T05:48:50;29.77;;;17.57;;
4106;SDS011;21906;50.812;7.132;2023-07-02T05:51:22;32.03;;;17.40;;
4106;SDS011;21906;50.812;7.132;2023-07-02T05:53:49;30.87;;;16.90;;
4106;SDS011;21906;50.812;7.132;2023-07-02T05:56:15;36.57;;;18.60;;
4106;SDS011;21906;50.812;7.132;2023-07-02T05:58:40;32.43;;;18.27;;
4106;SDS011;21906;50.812;7.132;2023-07-02T06:01:06;34.07;;;17.80;;
4106;SDS011;21906;50.812;7.132;2023-07-02T06:03:32;34.10;;;18.17;;
4106;SDS011;21906;50.812;7.132;2023-07-02T06:05:58;33.40;;;18.37;;
4106;SDS011;21906;50.812;7.132;2023-07-02T06:08:24;30.73;;;18.83;;
4106;SDS011;21906;50.812;7.132;2023-07-02T06:10:49;33.40;;;19.07;;
4106;SDS011;21906;50.812;7.132;2023-07-02T06:13:16;36.67;;;18.80;;
4106;SDS011;21906;50.812;7.132;2023-07-02T06:15:41;36.77;;;19.43;;
4106;SDS011;21906;50.812;7.132;2023-07-02T06:18:08;31.43;;;18.90;;
4106;SDS011;21906;50.812;7.132;2023-07-02T06:20:33;35.90;;;20.17;;
4106;SDS011;21906;50.812;7.132;2023-07-02T06:22:59;42.90;;;18.93;;
4106;SDS011;21906;50.812;7.132;2023-07-02T06:25:25;39.13;;;20.70;;
4106;SDS011;21906;50.812;7.132;2023-07-02T06:27:51;35.60;;;19.90;;
4106;SDS011;21906;50.812;7.132;2023-07-02T06:30:19;31.77;;;19.53;;
4106;SDS011;21906;50.812;7.132;2023-07-02T06:32:45;34.90;;;19.07;;
4106;SDS011;21906;50.812;7.132;2023-07-02T06:35:11;31.00;;;18.60;;
4106;SDS011;21906;50.812;7.132;2023-07-02T06:37:36;34.90;;;20.10;;
4106;SDS011;21906;50.812;7.132;2023-07-02T06:40:02;30.10;;;18.07;;
4106;SDS011;21906;50.812;7.132;2023-07-02T06:42:28;36.47;;;18.87;;
4106;SDS011;21906;50.812;7.132;2023-07-02T06:44:54;33.93;;;18.30;;
4106;SDS011;21906;50.812;7.132;2023-07-02T06:47:19;31.37;;;17.63;;
4106;SDS011;21906;50.812;7.132;2023-07-02T06:49:45;34.60;;;18.27;;
4106;SDS011;21906;50.812;7.132;2023-07-02T06:52:11;33.00;;;18.97;;
4106;SDS011;21906;50.812;7.132;2023-07-02T06:54:36;34.97;;;18.33;;
4106;SDS011;21906;50.812;7.132;2023-07-02T06:57:02;33.17;;;18.53;;
4106;SDS011;21906;50.812;7.132;2023-07-02T06:59:28;31.10;;;17.03;;
4106;SDS011;21906;50.812;7.132;2023-07-02T07:01:53;34.50;;;18.40;;
4106;SDS011;21906;50.812;7.132;2023-07-02T07:04:19;28.63;;;17.10;;
4106;SDS011;21906;50.812;7.132;2023-07-02T07:06:45;31.00;;;17.27;;
4106;SDS011;21906;50.812;7.132;2023-07-02T07:09:10;26.60;;;15.50;;
4106;SDS011;21906;50.812;7.132;2023-07-02T07:11:36;30.20;;;17.07;;
4106;SDS011;21906;50.812;7.132;2023-07-02T07:14:02;26.57;;;16.10;;
4106;SDS011;21906;50.812;7.132;2023-07-02T07:16:27;26.97;;;16.17;;
4106;SDS011;21906;50.812;7.132;2023-07-02T07:18:53;26.03;;;16.30;;
4106;SDS011;21906;50.812;7.132;2023-07-02T07:21:19;30.43;;;16.53;;
4106;SDS011;21906;50.812;7.132;2023-07-02T07:23:45;29.87;;;15.87;;
4106;SDS011;21906;50.812;7.132;2023-07-02T07:26:10;29.20;;;15.87;;
4106;SDS011;21906;50.812;7.132;2023-07-02T07:28:36;30.50;;;16.63;;
4106;SDS011;21906;50.812;7.132;2023-07-02T07:31:02;26.60;;;16.83;;
4106;SDS011;21906;50.812;7.132;2023-07-02T07:33:28;30.50;;;16.80;;
4106;SDS011;21906;50.812;7.132;2023-07-02T07:35:54;27.37;;;16.10;;
4106;SDS011;21906;50.812;7.132;2023-07-02T07:38:19;25.47;;;15.13;;
4106;SDS011;21906;50.812;7.132;2023-07-02T07:40:45;25.33;;;14.13;;
4106;SDS011;21906;50.812;7.132;2023-07-02T07:43:11;25.93;;;14.67;;
4106;SDS011;21906;50.812;7.132;2023-07-02T07:45:37;23.87;;;13.50;;
4106;SDS011;21906;50.812;7.132;2023-07-02T07:48:03;23.20;;;15.27;;
4106;SDS011;21906;50.812;7.132;2023-07-02T07:50:29;23.97;;;15.30;;
4106;SDS011;21906;50.812;7.132;2023-07-02T07:52:55;24.53;;;14.90;;
4106;SDS011;21906;50.812;7.132;2023-07-02T07:55:21;26.50;;;16.20;;
4106;SDS011;21906;50.812;7.132;2023-07-02T07:57:47;25.50;;;14.03;;
4106;SDS011;21906;50.812;7.132;2023-07-02T08:00:12;26.50;;;14.23;;
4106;SDS011;21906;50.812;7.132;2023-07-02T08:02:39;25.20;;;15.20;;
4106;SDS011;21906;50.812;7.132;2023-07-02T08:05:05;27.90;;;15.10;;
4106;SDS011;21906;50.812;7.132;2023-07-02T08:07:32;24.63;;;15.17;;
4106;SDS011;21906;50.812;7.132;2023-07-02T08:09:59;25.93;;;14.50;;
4106;SDS011;21906;50.812;7.132;2023-07-02T08:12:25;24.23;;;14.03;;
4106;SDS011;21906;50.812;7.132;2023-07-02T08:14:54;25.20;;;14.10;;
4106;SDS011;21906;50.812;7.132;2023-07-02T08:17:20;22.43;;;13.20;;
4106;SDS011;21906;50.812;7.132;2023-07-02T08:19:46;25.43;;;13.83;;
4106;SDS011;21906;50.812;7.132;2023-07-02T08:22:12;27.57;;;14.00;;
4106;SDS011;21906;50.812;7.132;2023-07-02T08:24:38;20.00;;;13.20;;
4106;SDS011;21906;50.812;7.132;2023-07-02T08:27:04;21.03;;;12.50;;
4106;SDS011;21906;50.812;7.132;2023-07-02T08:29:30;22.47;;;12.93;;
4106;SDS011;21906;50.812;7.132;2023-07-02T08:31:56;22.67;;;14.27;;
4106;SDS011;21906;50.812;7.132;2023-07-02T08:34:22;24.10;;;15.37;;
4106;SDS011;21906;50.812;7.132;2023-07-02T08:36:48;23.60;;;14.70;;
4106;SDS011;21906;50.812;7.132;2023-07-02T08:39:16;21.60;;;13.83;;
4106;SDS011;21906;50.812;7.132;2023-07-02T08:41:43;21.37;;;14.00;;
4106;SDS011;21906;50.812;7.132;2023-07-02T08:44:13;17.80;;;12.50;;
4106;SDS011;21906;50.812;7.132;2023-07-02T08:46:40;19.33;;;12.20;;
4106;SDS011;21906;50.812;7.132;2023-07-02T08:49:09;21.90;;;13.20;;
4106;SDS011;21906;50.812;7.132;2023-07-02T08:51:36;22.20;;;13.07;;
4106;SDS011;21906;50.812;7.132;2023-07-02T08:54:02;24.50;;;14.50;;
4106;SDS011;21906;50.812;7.132;2023-07-02T08:56:28;22.77;;;13.33;;
4106;SDS011;21906;50.812;7.132;2023-07-02T08:58:55;24.17;;;13.50;;
4106;SDS011;21906;50.812;7.132;2023-07-02T09:01:21;19.20;;;12.70;;
4106;SDS011;21906;50.812;7.132;2023-07-02T09:03:46;19.93;;;11.80;;
4106;SDS011;21906;50.812;7.132;2023-07-02T09:06:16;18.30;;;12.60;;
4106;SDS011;21906;50.812;7.132;2023-07-02T09:08:43;19.00;;;12.93;;
4106;SDS011;21906;50.812;7.132;2023-07-02T09:11:09;18.70;;;13.43;;
4106;SDS011;21906;50.812;7.132;2023-07-02T09:13:45;25.23;;;13.05;;
4106;SDS011;21906;50.812;7.132;2023-07-02T09:19:03;22.60;;;13.23;;
4106;SDS011;21906;50.812;7.132;2023-07-02T09:22:04;21.63;;;13.43;;
4106;SDS011;21906;50.812;7.132;2023-07-02T09:24:27;26.20;;;14.70;;
4106;SDS011;21906;50.812;7.132;2023-07-02T09:26:55;24.00;;;14.17;;
4106;SDS011;21906;50.812;7.132;2023-07-02T09:29:30;21.80;;;14.47;;
4106;SDS011;21906;50.812;7.132;2023-07-02T09:32:08;31.23;;;14.80;;
4106;SDS011;21906;50.812;7.132;2023-07-02T09:34:35;19.88;;;13.43;;
4106;SDS011;21906;50.812;7.132;2023-07-02T09:37:02;23.77;;;14.70;;
4106;SDS011;21906;50.812;7.132;2023-07-02T09:39:34;22.10;;;13.87;;
4106;SDS011;21906;50.812;7.132;2023-07-02T09:42:02;27.00;;;15.60;;
4106;SDS011;21906;50.812;7.132;2023-07-02T09:44:31;25.10;;;14.37;;
4106;SDS011;21906;50.812;7.132;2023-07-02T09:47:02;23.17;;;15.23;;
4106;SDS011;21906;50.812;7.132;2023-07-02T09:52:33;23.63;;;14.07;;
4106;SDS011;21906;50.812;7.132;2023-07-02T09:55:00;20.53;;;14.03;;
4106;SDS011;21906;50.812;7.132;2023-07-02T09:57:26;22.87;;;14.80;;
4106;SDS011;21906;50.812;7.132;2023-07-02T09:59:56;22.20;;;14.20;;
4106;SDS011;21906;50.812;7.132;2023-07-02T10:02:23;25.43;;;13.67;;
4106;SDS011;21906;50.812;7.132;2023-07-02T10:04:49;24.13;;;14.43;;
4106;SDS011;21906;50.812;7.132;2023-07-02T10:07:26;23.50;;;14.50;;
4106;SDS011;21906;50.812;7.132;2023-07-02T10:09:53;19.20;;;13.80;;
4106;SDS011;21906;50.812;7.132;2023-07-02T10:14:55;24.70;;;14.25;;
4106;SDS011;21906;50.812;7.132;2023-07-02T10:17:29;18.77;;;13.53;;
4106;SDS011;21906;50.812;7.132;2023-07-02T10:20:08;22.63;;;14.30;;
4106;SDS011;21906;50.812;7.132;2023-07-02T10:25:09;20.07;;;13.37;;
4106;SDS011;21906;50.812;7.132;2023-07-02T10:27:35;22.43;;;14.30;;
4106;SDS011;21906;50.812;7.132;2023-07-02T10:30:05;24.00;;;14.03;;
4106;SDS011;21906;50.812;7.132;2023-07-02T10:32:33;23.53;;;14.10;;
4106;SDS011;21906;50.812;7.132;2023-07-02T10:35:16;20.53;;;13.67;;
4106;SDS011;21906;50.812;7.132;2023-07-02T10:37:42;23.50;;;13.10;;
4106;SDS011;21906;50.812;7.132;2023-07-02T10:40:09;20.03;;;13.23;;
4106;SDS011;21906;50.812;7.132;2023-07-02T10:42:45;20.20;;;12.53;;
4106;SDS011;21906;50.812;7.132;2023-07-02T10:45:12;19.53;;;12.13;;
4106;SDS011;21906;50.812;7.132;2023-07-02T10:47:39;23.07;;;13.10;;
4106;SDS011;21906;50.812;7.132;2023-07-02T10:50:19;17.33;;;12.50;;
4106;SDS011;21906;50.812;7.132;2023-07-02T10:52:45;15.90;;;12.30;;
4106;SDS011;21906;50.812;7.132;2023-07-02T10:55:18;18.43;;;12.27;;
4106;SDS011;21906;50.812;7.132;2023-07-02T10:57:48;20.70;;;13.20;;
4106;SDS011;21906;50.812;7.132;2023-07-02T11:00:16;21.40;;;12.97;;
4106;SDS011;21906;50.812;7.132;2023-07-02T11:02:42;25.13;;;12.63;;
4106;SDS011;21906;50.812;7.132;2023-07-02T11:05:09;17.63;;;11.33;;
4106;SDS011;21906;50.812;7.132;2023-07-02T11:07:43;17.13;;;11.93;;
4106;SDS011;21906;50.812;7.132;2023-07-02T11:10:09;21.77;;;12.07;;
4106;SDS011;21906;50.812;7.132;2023-07-02T11:12:41;19.50;;;10.87;;
4106;SDS011;21906;50.812;7.132;2023-07-02T11:15:08;20.30;;;12.40;;
4106;SDS011;21906;50.812;7.132;2023-07-02T11:17:40;17.30;;;11.37;;
4106;SDS011;21906;50.812;7.132;2023-07-02T11:20:10;14.70;;;10.80;;
4106;SDS011;21906;50.812;7.132;2023-07-02T11:22:37;19.67;;;11.97;;
4106;SDS011;21906;50.812;7.132;2023-07-02T11:25:10;17.47;;;12.90;;
4106;SDS011;21906;50.812;7.132;2023-07-02T11:27:41;22.43;;;12.27;;
4106;SDS011;21906;50.812;7.132;2023-07-02T11:30:08;22.40;;;12.90;;
4106;SDS011;21906;50.812;7.132;2023-07-02T11:35:34;19.73;;;12.20;;
4106;SDS011;21906;50.812;7.132;2023-07-02T11:38:01;18.80;;;13.00;;
4106;SDS011;21906;50.812;7.132;2023-07-02T11:40:27;20.00;;;12.63;;
4106;SDS011;21906;50.812;7.132;2023-07-02T11:42:53;24.10;;;13.70;;
4106;SDS011;21906;50.812;7.132;2023-07-02T11:45:18;19.10;;;13.33;;
4106;SDS011;21906;50.812;7.132;2023-07-02T11:47:44;20.17;;;12.90;;
4106;SDS011;21906;50.812;7.132;2023-07-02T11:50:10;21.53;;;13.27;;
4106;SDS011;21906;50.812;7.132;2023-07-02T11:52:36;20.87;;;13.17;;
4106;SDS011;21906;50.812;7.132;2023-07-02T11:55:02;20.77;;;12.73;;
4106;SDS011;21906;50.812;7.132;2023-07-02T11:57:27;18.87;;;12.63;;
4106;SDS011;21906;50.812;7.132;2023-07-02T11:59:53;24.17;;;13.80;;
4106;SDS011;21906;50.812;7.132;2023-07-02T12:02:19;22.50;;;13.83;;
4106;SDS011;21906;50.812;7.132;2023-07-02T12:04:45;19.63;;;12.50;;
4106;SDS011;21906;50.812;7.132;2023-07-02T12:07:10;20.00;;;13.10;;
4106;SDS011;21906;50.812;7.132;2023-07-02T12:09:38;18.17;;;11.70;;
4106;SDS011;21906;50.812;7.132;2023-07-02T12:12:04;19.00;;;13.03;;
4106;SDS011;21906;50.812;7.132;2023-07-02T12:14:30;18.47;;;12.40;;
4106;SDS011;21906;50.812;7.132;2023-07-02T12:16:56;22.23;;;12.40;;
4106;SDS011;21906;50.812;7.132;2023-07-02T12:19:22;19.87;;;12.77;;
4106;SDS011;21906;50.812;7.132;2023-07-02T12:21:48;19.97;;;11.93;;
4106;SDS011;21906;50.812;7.132;2023-07-02T12:24:14;15.60;;;11.77;;
4106;SDS011;21906;50.812;7.132;2023-07-02T12:26:39;20.43;;;11.57;;
4106;SDS011;21906;50.812;7.132;2023-07-02T12:29:06;17.90;;;11.73;;
4106;SDS011;21906;50.812;7.132;2023-07-02T12:31:32;18.57;;;12.03;;
4106;SDS011;21906;50.812;7.132;2023-07-02T12:33:57;16.83;;;12.00;;
4106;SDS011;21906;50.812;7.132;2023-07-02T12:36:23;17.73;;;11.80;;
4106;SDS011;21906;50.812;7.132;2023-07-02T12:38:49;18.67;;;12.00;;
4106;SDS011;21906;50.812;7.132;2023-07-02T12:41:15;18.47;;;12.80;;
4106;SDS011;21906;50.812;7.132;2023-07-02T12:43:41;17.53;;;11.37;;
4106;SDS011;21906;50.812;7.132;2023-07-02T12:46:06;17.40;;;10.93;;
4106;SDS011;21906;50.812;7.132;2023-07-02T12:48:32;18.90;;;11.77;;
4106;SDS011;21906;50.812;7.132;2023-07-02T12:50:59;18.70;;;12.00;;
4106;SDS011;21906;50.812;7.132;2023-07-02T12:53:25;19.17;;;11.73;;
4106;SDS011;21906;50.812;7.132;2023-07-02T12:55:52;16.73;;;10.97;;
4106;SDS011;21906;50.812;7.132;2023-07-02T12:58:18;16.37;;;11.60;;
4106;SDS011;21906;50.812;7.132;2023-07-02T13:00:44;15.27;;;11.00;;
4106;SDS011;21906;50.812;7.132;2023-07-02T13:03:12;20.97;;;12.30;;
4106;SDS011;21906;50.812;7.132;2023-07-02T13:05:38;15.10;;;10.97;;
4106;SDS011;21906;50.812;7.132;2023-07-02T13:08:05;16.03;;;11.63;;
4106;SDS011;21906;50.812;7.132;2023-07-02T13:10:31;21.13;;;10.40;;
4106;SDS011;21906;50.812;7.132;2023-07-02T13:12:58;16.23;;;11.00;;
4106;SDS011;21906;50.812;7.132;2023-07-02T13:15:24;20.23;;;12.00;;
4106;SDS011;21906;50.812;7.132;2023-07-02T13:17:50;17.33;;;11.10;;
4106;SDS011;21906;50.812;7.132;2023-07-02T13:20:16;21.50;;;12.57;;
4106;SDS011;21906;50.812;7.132;2023-07-02T13:22:42;21.37;;;12.67;;
4106;SDS011;21906;50.812;7.132;2023-07-02T13:25:08;23.27;;;13.40;;
4106;SDS011;21906;50.812;7.132;2023-07-02T13:27:34;19.83;;;12.75;;
4106;SDS011;21906;50.812;7.132;2023-07-02T13:30:00;21.17;;;12.30;;
4106;SDS011;21906;50.812;7.132;2023-07-02T13:32:27;18.40;;;12.63;;
4106;SDS011;21906;50.812;7.132;2023-07-02T13:34:52;17.53;;;11.57;;
4106;SDS011;21906;50.812;7.132;2023-07-02T13:37:18;17.10;;;11.40;;
4106;SDS011;21906;50.812;7.132;2023-07-02T13:39:47;15.20;;;11.53;;
4106;SDS011;21906;50.812;7.132;2023-07-02T13:42:13;19.40;;;11.77;;
4106;SDS011;21906;50.812;7.132;2023-07-02T13:44:40;16.87;;;11.83;;
4106;SDS011;21906;50.812;7.132;2023-07-02T13:47:06;17.53;;;11.70;;
4106;SDS011;21906;50.812;7.132;2023-07-02T13:49:32;16.60;;;12.33;;
4106;SDS011;21906;50.812;7.132;2023-07-02T13:51:58;16.93;;;11.63;;
4106;SDS011;21906;50.812;7.132;2023-07-02T13:54:24;19.60;;;12.33;;
4106;SDS011;21906;50.812;7.132;2023-07-02T13:56:50;20.87;;;12.90;;
4106;SDS011;21906;50.812;7.132;2023-07-02T13:59:17;15.80;;;11.47;;
4106;SDS011;21906;50.812;7.132;2023-07-02T14:01:43;14.60;;;11.30;;
4106;SDS011;21906;50.812;7.132;2023-07-02T14:04:10;21.33;;;11.93;;
4106;SDS011;21906;50.812;7.132;2023-07-02T14:06:36;20.97;;;11.20;;
4106;SDS011;21906;50.812;7.132;2023-07-02T14:09:03;15.03;;;11.93;;
4106;SDS011;21906;50.812;7.132;2023-07-02T14:11:30;15.10;;;11.80;;
4106;SDS011;21906;50.812;7.132;2023-07-02T14:13:56;17.70;;;11.70;;
4106;SDS011;21906;50.812;7.132;2023-07-02T14:16:22;17.10;;;11.93;;
4106;SDS011;21906;50.812;7.132;2023-07-02T14:18:49;15.63;;;11.30;;
4106;SDS011;21906;50.812;7.132;2023-07-02T14:21:15;17.43;;;12.10;;
4106;SDS011;21906;50.812;7.132;2023-07-02T14:23:42;16.63;;;11.60;;
4106;SDS011;21906;50.812;7.132;2023-07-02T14:26:09;15.63;;;11.50;;
4106;SDS011;21906;50.812;7.132;2023-07-02T14:28:34;14.20;;;11.10;;
4106;SDS011;21906;50.812;7.132;2023-07-02T14:31:03;13.93;;;11.03;;
4106;SDS011;21906;50.812;7.132;2023-07-02T14:33:31;18.23;;;12.20;;
4106;SDS011;21906;50.812;7.132;2023-07-02T14:35:58;16.80;;;10.87;;
4106;SDS011;21906;50.812;7.132;2023-07-02T14:38:25;19.27;;;12.60;;
4106;SDS011;21906;50.812;7.132;2023-07-02T14:40:51;16.17;;;12.63;;
4106;SDS011;21906;50.812;7.132;2023-07-02T14:43:18;17.57;;;11.83;;
4106;SDS011;21906;50.812;7.132;2023-07-02T14:45:48;13.73;;;11.50;;
4106;SDS011;21906;50.812;7.132;2023-07-02T14:48:16;16.20;;;11.10;;
4106;SDS011;21906;50.812;7.132;2023-07-02T14:50:49;18.35;;;12.25;;
4106;SDS011;21906;50.812;7.132;2023-07-02T14:53:17;17.80;;;12.20;;
4106;SDS011;21906;50.812;7.132;2023-07-02T14:55:43;18.03;;;11.70;;